sensor_id;sensor_type;location;lat;lon;timestamp;pressure;altitude;pressure_sealevel;temperature;humidity
66486;BME280;53303;47.476;8.084;2022-07-22T00:00:06;96818.81;;;23.81;47.16
66486;BME280;53303;47.476;8.084;2022-07-22T00:02:36;96820.34;;;23.82;47.13
66486;BME280;53303;47.476;8.084;2022-07-22T00:05:02;96817.56;;;23.82;46.96
66486;BME280;53303;47.476;8.084;2022-07-22T00:07:32;96811.16;;;23.76;46.86
66486;BME280;53303;47.476;8.084;2022-07-22T00:09:58;96809.69;;;23.81;47.05
66486;BME280;53303;47.476;8.084;2022-07-22T00:12:24;96806.91;;;23.81;46.79
66486;BME280;53303;47.476;8.084;2022-07-22T00:14:50;96806.63;;;23.79;46.93
66486;BME280;53303;47.476;8.084;2022-07-22T00:17:15;96808.66;;;23.78;46.93
66486;BME280;53303;47.476;8.084;2022-07-22T00:19:41;96803.25;;;23.69;46.88
66486;BME280;53303;47.476;8.084;2022-07-22T00:22:09;96799.75;;;23.74;46.76
66486;BME280;53303;47.476;8.084;2022-07-22T00:24:37;96793.38;;;23.68;46.80
66486;BME280;53303;47.476;8.084;2022-07-22T00:27:03;96805.34;;;23.80;46.85
66486;BME280;53303;47.476;8.084;2022-07-22T00:29:28;96792.16;;;23.74;46.70
66486;BME280;53303;47.476;8.084;2022-07-22T00:31:55;96792.41;;;23.71;46.72
66486;BME280;53303;47.476;8.084;2022-07-22T00:34:22;96798.75;;;23.77;46.84
66486;BME280;53303;47.476;8.084;2022-07-22T00:36:47;96777.16;;;23.66;46.96
66486;BME280;53303;47.476;8.084;2022-07-22T00:39:15;96787.09;;;23.73;46.94
66486;BME280;53303;47.476;8.084;2022-07-22T00:41:41;96783.25;;;23.70;46.89
66486;BME280;53303;47.476;8.084;2022-07-22T00:44:08;96790.38;;;23.77;46.85
66486;BME280;53303;47.476;8.084;2022-07-22T00:46:38;96775.16;;;23.72;46.87
66486;BME280;53303;47.476;8.084;2022-07-22T00:49:07;96778.22;;;23.74;46.73
66486;BME280;53303;47.476;8.084;2022-07-22T00:51:34;96775.41;;;23.69;46.78
66486;BME280;53303;47.476;8.084;2022-07-22T00:54:02;96778.97;;;23.75;46.69
66486;BME280;53303;47.476;8.084;2022-07-22T00:56:31;96771.88;;;23.74;46.81
66486;BME280;53303;47.476;8.084;2022-07-22T00:59:00;96782.25;;;23.73;46.92
66486;BME280;53303;47.476;8.084;2022-07-22T01:01:28;96777.13;;;23.55;47.12
66486;BME280;53303;47.476;8.084;2022-07-22T01:03:54;96775.91;;;23.67;46.99
66486;BME280;53303;47.476;8.084;2022-07-22T01:06:20;96776.41;;;23.66;46.93
66486;BME280;53303;47.476;8.084;2022-07-22T01:08:45;96781.75;;;23.69;47.03
66486;BME280;53303;47.476;8.084;2022-07-22T01:11:18;96769.06;;;23.68;46.81
66486;BME280;53303;47.476;8.084;2022-07-22T01:13:45;96771.09;;;23.68;46.97
66486;BME280;53303;47.476;8.084;2022-07-22T01:16:16;96775.91;;;23.67;47.02
66486;BME280;53303;47.476;8.084;2022-07-22T01:18:43;96766.78;;;23.67;47.13
66486;BME280;53303;47.476;8.084;2022-07-22T01:21:14;96772.09;;;23.65;47.11
66486;BME280;53303;47.476;8.084;2022-07-22T01:23:40;96726.88;;;23.38;47.01
66486;BME280;53303;47.476;8.084;2022-07-22T01:26:08;96760.44;;;23.61;47.07
66486;BME280;53303;47.476;8.084;2022-07-22T01:28:34;96756.88;;;23.60;47.20
66486;BME280;53303;47.476;8.084;2022-07-22T01:31:00;96768.81;;;23.66;46.87
66486;BME280;53303;47.476;8.084;2022-07-22T01:33:25;96769.31;;;23.65;47.03
66486;BME280;53303;47.476;8.084;2022-07-22T01:35:53;96758.88;;;23.60;47.02
66486;BME280;53303;47.476;8.084;2022-07-22T01:38:25;96763.22;;;23.61;46.84
66486;BME280;53303;47.476;8.084;2022-07-22T01:40:50;96761.94;;;23.62;47.11
66486;BME280;53303;47.476;8.084;2022-07-22T01:43:18;96766.78;;;23.67;46.84
66486;BME280;53303;47.476;8.084;2022-07-22T01:45:48;96772.09;;;23.65;46.95
66486;BME280;53303;47.476;8.084;2022-07-22T01:48:18;96770.06;;;23.65;46.95
66486;BME280;53303;47.476;8.084;2022-07-22T01:50:44;96760.66;;;23.57;46.87
66486;BME280;53303;47.476;8.084;2022-07-22T01:53:10;96767.78;;;23.64;46.83
66486;BME280;53303;47.476;8.084;2022-07-22T01:55:37;96772.84;;;23.65;46.97
66486;BME280;53303;47.476;8.084;2022-07-22T01:58:03;96774.38;;;23.66;46.84
66486;BME280;53303;47.476;8.084;2022-07-22T02:00:30;96766.25;;;23.63;46.94
66486;BME280;53303;47.476;8.084;2022-07-22T02:02:57;96779.19;;;23.66;46.73
66486;BME280;53303;47.476;8.084;2022-07-22T02:05:24;96775.63;;;23.65;46.81
66486;BME280;53303;47.476;8.084;2022-07-22T02:07:56;96774.13;;;23.64;46.91
66486;BME280;53303;47.476;8.084;2022-07-22T02:10:23;96773.38;;;23.64;46.83
66486;BME280;53303;47.476;8.084;2022-07-22T02:12:51;96769.03;;;23.63;46.93
66486;BME280;53303;47.476;8.084;2022-07-22T02:15:16;96759.94;;;23.62;46.77
66486;BME280;53303;47.476;8.084;2022-07-22T02:17:43;96765.75;;;23.59;46.82
66486;BME280;53303;47.476;8.084;2022-07-22T02:20:08;96760.91;;;23.59;46.69
66486;BME280;53303;47.476;8.084;2022-07-22T02:22:35;96757.13;;;23.56;46.78
66486;BME280;53303;47.476;8.084;2022-07-22T02:25:00;96764.97;;;23.58;46.80
66486;BME280;53303;47.476;8.084;2022-07-22T02:27:26;96760.91;;;23.53;46.78
66486;BME280;53303;47.476;8.084;2022-07-22T02:29:52;96766.25;;;23.57;46.84
66486;BME280;53303;47.476;8.084;2022-07-22T02:32:17;96763.44;;;23.57;46.90
66486;BME280;53303;47.476;8.084;2022-07-22T02:34:44;96768.75;;;23.55;46.81
66486;BME280;53303;47.476;8.084;2022-07-22T02:37:09;96764.44;;;23.54;46.83
66486;BME280;53303;47.476;8.084;2022-07-22T02:39:35;96764.19;;;23.52;46.90
66486;BME280;53303;47.476;8.084;2022-07-22T02:42:00;96753.25;;;23.43;46.87
66486;BME280;53303;47.476;8.084;2022-07-22T02:44:27;96758.59;;;23.46;46.74
66486;BME280;53303;47.476;8.084;2022-07-22T02:46:58;96753.50;;;23.45;46.81
66486;BME280;53303;47.476;8.084;2022-07-22T02:49:26;96754.78;;;23.49;46.79
66486;BME280;53303;47.476;8.084;2022-07-22T02:51:51;96750.50;;;23.48;46.96
66486;BME280;53303;47.476;8.084;2022-07-22T02:54:17;96748.94;;;23.42;46.94
66486;BME280;53303;47.476;8.084;2022-07-22T02:56:42;96744.13;;;23.42;46.78
66486;BME280;53303;47.476;8.084;2022-07-22T02:59:10;96743.59;;;23.38;46.79
66486;BME280;53303;47.476;8.084;2022-07-22T03:01:35;96748.91;;;23.36;46.80
66486;BME280;53303;47.476;8.084;2022-07-22T03:04:01;96741.56;;;23.38;46.92
66486;BME280;53303;47.476;8.084;2022-07-22T03:06:26;96747.13;;;23.38;47.01
66486;BME280;53303;47.476;8.084;2022-07-22T03:08:54;96742.31;;;23.33;46.72
66486;BME280;53303;47.476;8.084;2022-07-22T03:11:19;96746.38;;;23.38;46.69
66486;BME280;53303;47.476;8.084;2022-07-22T03:13:45;96748.44;;;23.43;46.80
66486;BME280;53303;47.476;8.084;2022-07-22T03:16:10;96751.72;;;23.42;46.75
66486;BME280;53303;47.476;8.084;2022-07-22T03:18:36;96750.22;;;23.41;46.88
66486;BME280;53303;47.476;8.084;2022-07-22T03:21:01;96749.44;;;23.40;46.87
66486;BME280;53303;47.476;8.084;2022-07-22T03:23:27;96753.00;;;23.41;46.70
66486;BME280;53303;47.476;8.084;2022-07-22T03:25:52;96745.63;;;23.37;46.81
66486;BME280;53303;47.476;8.084;2022-07-22T03:28:17;96745.63;;;23.37;46.77
66486;BME280;53303;47.476;8.084;2022-07-22T03:30:43;96745.09;;;23.33;46.86
66486;BME280;53303;47.476;8.084;2022-07-22T03:33:11;96742.56;;;23.35;46.79
66486;BME280;53303;47.476;8.084;2022-07-22T03:35:36;96738.75;;;23.33;46.86
66486;BME280;53303;47.476;8.084;2022-07-22T03:38:02;96749.91;;;23.38;46.81
66486;BME280;53303;47.476;8.084;2022-07-22T03:40:28;96743.56;;;23.32;46.66
66486;BME280;53303;47.476;8.084;2022-07-22T03:42:53;96746.84;;;23.31;46.72
66486;BME280;53303;47.476;8.084;2022-07-22T03:45:19;96745.09;;;23.33;46.75
66486;BME280;53303;47.476;8.084;2022-07-22T03:47:44;96739.78;;;23.30;46.70
66486;BME280;53303;47.476;8.084;2022-07-22T03:50:10;96739.25;;;23.31;46.78
66486;BME280;53303;47.476;8.084;2022-07-22T03:52:35;96747.09;;;23.33;46.64
66486;BME280;53303;47.476;8.084;2022-07-22T03:55:01;96749.63;;;23.31;46.64
66486;BME280;53303;47.476;8.084;2022-07-22T03:57:26;96738.47;;;23.25;46.64
66486;BME280;53303;47.476;8.084;2022-07-22T03:59:54;96730.13;;;23.31;46.60
66486;BME280;53303;47.476;8.084;2022-07-22T04:02:19;96726.06;;;23.26;46.62
66486;BME280;53303;47.476;8.084;2022-07-22T04:04:47;96734.69;;;23.28;46.62
66486;BME280;53303;47.476;8.084;2022-07-22T04:07:12;96729.88;;;23.29;46.64
66486;BME280;53303;47.476;8.084;2022-07-22T04:09:38;96729.88;;;23.29;46.57
66486;BME280;53303;47.476;8.084;2022-07-22T04:12:04;96723.00;;;23.24;46.73
66486;BME280;53303;47.476;8.084;2022-07-22T04:14:29;96730.59;;;23.24;46.53
66486;BME280;53303;47.476;8.084;2022-07-22T04:16:55;96733.66;;;23.26;46.38
66486;BME280;53303;47.476;8.084;2022-07-22T04:19:23;96727.31;;;23.25;46.70
66486;BME280;53303;47.476;8.084;2022-07-22T04:21:48;96729.34;;;23.25;46.57
66486;BME280;53303;47.476;8.084;2022-07-22T04:24:14;96730.09;;;23.19;46.64
66486;BME280;53303;47.476;8.084;2022-07-22T04:26:39;96733.38;;;23.24;46.68
66486;BME280;53303;47.476;8.084;2022-07-22T04:29:05;96721.47;;;23.17;46.81
66486;BME280;53303;47.476;8.084;2022-07-22T04:31:30;96722.72;;;23.16;46.87
66486;BME280;53303;47.476;8.084;2022-07-22T04:33:57;96723.53;;;23.23;46.73
66486;BME280;53303;47.476;8.084;2022-07-22T04:36:22;96729.31;;;23.19;46.70
66486;BME280;53303;47.476;8.084;2022-07-22T04:38:48;96719.94;;;23.16;46.94
66486;BME280;53303;47.476;8.084;2022-07-22T04:41:16;96717.41;;;23.18;46.83
66486;BME280;53303;47.476;8.084;2022-07-22T04:43:44;96730.59;;;23.24;46.84
66486;BME280;53303;47.476;8.084;2022-07-22T04:46:09;96722.97;;;23.18;47.02
66486;BME280;53303;47.476;8.084;2022-07-22T04:48:35;96730.84;;;23.20;47.06
66486;BME280;53303;47.476;8.084;2022-07-22T04:51:01;96722.22;;;23.18;47.21
66486;BME280;53303;47.476;8.084;2022-07-22T04:53:27;96722.19;;;23.12;47.22
66486;BME280;53303;47.476;8.084;2022-07-22T04:55:53;96725.50;;;23.16;47.22
66486;BME280;53303;47.476;8.084;2022-07-22T04:58:18;96723.47;;;23.17;47.37
66486;BME280;53303;47.476;8.084;2022-07-22T05:00:45;96714.38;;;23.16;47.34
66486;BME280;53303;47.476;8.084;2022-07-22T05:03:10;96717.41;;;23.18;47.33
66486;BME280;53303;47.476;8.084;2022-07-22T05:05:38;96726.50;;;23.19;47.43
66486;BME280;53303;47.476;8.084;2022-07-22T05:08:06;96729.59;;;23.21;47.59
66486;BME280;53303;47.476;8.084;2022-07-22T05:10:32;96724.25;;;23.17;47.67
66486;BME280;53303;47.476;8.084;2022-07-22T05:12:58;96724.75;;;23.16;47.76
66486;BME280;53303;47.476;8.084;2022-07-22T05:15:23;96732.63;;;23.23;47.61
66486;BME280;53303;47.476;8.084;2022-07-22T05:17:51;96722.22;;;23.18;47.76
66486;BME280;53303;47.476;8.084;2022-07-22T05:20:17;96730.34;;;23.22;47.83
66486;BME280;53303;47.476;8.084;2022-07-22T05:22:42;96740.50;;;23.25;48.15
66486;BME280;53303;47.476;8.084;2022-07-22T05:25:08;96732.91;;;23.25;47.90
66486;BME280;53303;47.476;8.084;2022-07-22T05:27:34;96732.63;;;23.23;47.97
66486;BME280;53303;47.476;8.084;2022-07-22T05:29:59;96733.66;;;23.26;48.00
66486;BME280;53303;47.476;8.084;2022-07-22T05:32:24;96732.63;;;23.23;48.04
66486;BME280;53303;47.476;8.084;2022-07-22T05:34:50;96728.56;;;23.24;48.19
66486;BME280;53303;47.476;8.084;2022-07-22T05:37:15;96735.19;;;23.27;48.22
66486;BME280;53303;47.476;8.084;2022-07-22T05:39:42;96719.69;;;23.20;48.14
66486;BME280;53303;47.476;8.084;2022-07-22T05:42:11;96735.69;;;23.25;48.17
66486;BME280;53303;47.476;8.084;2022-07-22T05:44:36;96731.13;;;23.28;48.34
66486;BME280;53303;47.476;8.084;2022-07-22T05:47:01;96718.22;;;23.25;48.17
66486;BME280;53303;47.476;8.084;2022-07-22T05:49:27;96711.13;;;23.24;48.73
66486;BME280;53303;47.476;8.084;2022-07-22T05:51:53;96720.50;;;23.26;48.67
66486;BME280;53303;47.476;8.084;2022-07-22T05:54:19;96727.84;;;23.29;48.69
66486;BME280;53303;47.476;8.084;2022-07-22T05:56:45;96710.63;;;23.25;48.88
66486;BME280;53303;47.476;8.084;2022-07-22T05:59:13;96715.69;;;23.27;49.00
66486;BME280;53303;47.476;8.084;2022-07-22T06:01:40;96708.84;;;23.28;49.01
66486;BME280;53303;47.476;8.084;2022-07-22T06:04:06;96727.88;;;23.35;49.36
66486;BME280;53303;47.476;8.084;2022-07-22T06:06:31;96719.50;;;23.35;49.55
66486;BME280;53303;47.476;8.084;2022-07-22T06:08:57;96719.25;;;23.33;49.53
66486;BME280;53303;47.476;8.084;2022-07-22T06:11:22;96721.28;;;23.32;49.63
66486;BME280;53303;47.476;8.084;2022-07-22T06:13:47;96726.38;;;23.34;49.74
66486;BME280;53303;47.476;8.084;2022-07-22T06:16:13;96717.25;;;23.33;49.61
66486;BME280;53303;47.476;8.084;2022-07-22T06:18:38;96725.13;;;23.41;49.84
66486;BME280;53303;47.476;8.084;2022-07-22T06:21:08;96722.88;;;23.45;49.60
66486;BME280;53303;47.476;8.084;2022-07-22T06:23:34;96728.97;;;23.49;49.78
66486;BME280;53303;47.476;8.084;2022-07-22T06:26:00;96715.03;;;23.49;50.53
66486;BME280;53303;47.476;8.084;2022-07-22T06:28:28;96705.19;;;23.53;49.70
66486;BME280;53303;47.476;8.084;2022-07-22T06:30:53;96686.91;;;23.41;47.62
66486;BME280;53303;47.476;8.084;2022-07-22T06:33:18;96700.81;;;23.41;44.93
66486;BME280;53303;47.476;8.084;2022-07-22T06:35:44;96702.53;;;23.27;43.06
66486;BME280;53303;47.476;8.084;2022-07-22T06:38:12;96702.72;;;23.12;42.55
66486;BME280;53303;47.476;8.084;2022-07-22T06:40:37;96691.97;;;22.99;42.36
66486;BME280;53303;47.476;8.084;2022-07-22T06:43:03;96696.97;;;22.90;42.48
66486;BME280;53303;47.476;8.084;2022-07-22T06:45:28;96696.41;;;22.80;42.67
66486;BME280;53303;47.476;8.084;2022-07-22T06:47:54;96678.06;;;22.62;42.87
66486;BME280;53303;47.476;8.084;2022-07-22T06:50:20;96700.13;;;22.71;42.98
66486;BME280;53303;47.476;8.084;2022-07-22T06:52:45;96694.03;;;22.67;42.95
66486;BME280;53303;47.476;8.084;2022-07-22T06:55:11;96690.44;;;22.61;42.98
66486;BME280;53303;47.476;8.084;2022-07-22T06:57:36;96681.84;;;22.59;42.98
66486;BME280;53303;47.476;8.084;2022-07-22T07:00:04;96687.41;;;22.59;43.12
66486;BME280;53303;47.476;8.084;2022-07-22T07:02:31;96691.66;;;22.54;43.05
66486;BME280;53303;47.476;8.084;2022-07-22T07:04:57;96692.16;;;22.53;42.96
66486;BME280;53303;47.476;8.084;2022-07-22T07:07:22;96671.38;;;22.48;42.79
66486;BME280;53303;47.476;8.084;2022-07-22T07:09:50;96681.50;;;22.51;42.82
66486;BME280;53303;47.476;8.084;2022-07-22T07:12:17;96676.69;;;22.46;42.67
66486;BME280;53303;47.476;8.084;2022-07-22T07:14:43;96677.19;;;22.45;42.69
66486;BME280;53303;47.476;8.084;2022-07-22T07:17:08;96671.06;;;22.40;42.84
66486;BME280;53303;47.476;8.084;2022-07-22T07:19:33;96677.66;;;22.43;42.89
66486;BME280;53303;47.476;8.084;2022-07-22T07:21:59;96682.19;;;22.40;42.70
66486;BME280;53303;47.476;8.084;2022-07-22T07:24:24;96667.97;;;22.33;42.80
66486;BME280;53303;47.476;8.084;2022-07-22T07:26:50;96666.72;;;22.34;42.84
66486;BME280;53303;47.476;8.084;2022-07-22T07:29:15;96667.00;;;22.36;42.72
66486;BME280;53303;47.476;8.084;2022-07-22T07:31:44;96675.34;;;22.36;42.87
66486;BME280;53303;47.476;8.084;2022-07-22T07:34:09;96664.94;;;22.31;42.37
66486;BME280;53303;47.476;8.084;2022-07-22T07:36:37;96668.47;;;22.31;42.67
66486;BME280;53303;47.476;8.084;2022-07-22T07:39:02;96669.25;;;22.32;42.81
66486;BME280;53303;47.476;8.084;2022-07-22T07:41:28;96652.47;;;22.26;42.60
66486;BME280;53303;47.476;8.084;2022-07-22T07:43:53;96653.69;;;22.19;42.62
66486;BME280;53303;47.476;8.084;2022-07-22T07:46:19;96655.97;;;22.21;42.72
66486;BME280;53303;47.476;8.084;2022-07-22T07:48:46;96660.53;;;22.24;42.92
66486;BME280;53303;47.476;8.084;2022-07-22T07:51:14;96646.59;;;22.18;42.92
66486;BME280;53303;47.476;8.084;2022-07-22T07:53:40;96648.88;;;22.20;42.87
66486;BME280;53303;47.476;8.084;2022-07-22T07:56:09;96649.91;;;22.22;42.90
66486;BME280;53303;47.476;8.084;2022-07-22T07:58:34;96636.44;;;22.15;43.08
66486;BME280;53303;47.476;8.084;2022-07-22T08:00:59;96637.72;;;22.14;42.91
66486;BME280;53303;47.476;8.084;2022-07-22T08:03:27;96634.44;;;22.16;42.94
66486;BME280;53303;47.476;8.084;2022-07-22T08:05:53;96648.41;;;22.21;43.51
66486;BME280;53303;47.476;8.084;2022-07-22T08:08:18;96650.63;;;22.17;43.27
66486;BME280;53303;47.476;8.084;2022-07-22T08:10:44;96639.78;;;22.19;43.19
66486;BME280;53303;47.476;8.084;2022-07-22T08:13:09;96646.84;;;22.20;43.59
66486;BME280;53303;47.476;8.084;2022-07-22T08:15:37;96634.72;;;22.18;43.43
66486;BME280;53303;47.476;8.084;2022-07-22T08:18:03;96635.00;;;22.20;43.48
66486;BME280;53303;47.476;8.084;2022-07-22T08:20:29;96630.72;;;22.24;43.48
66486;BME280;53303;47.476;8.084;2022-07-22T08:22:54;96626.38;;;22.18;43.53
66486;BME280;53303;47.476;8.084;2022-07-22T08:25:22;96624.34;;;22.18;43.26
66486;BME280;53303;47.476;8.084;2022-07-22T08:27:48;96632.19;;;22.20;43.44
66486;BME280;53303;47.476;8.084;2022-07-22T08:30:16;96629.47;;;22.25;43.39
66486;BME280;53303;47.476;8.084;2022-07-22T08:32:42;96625.94;;;22.25;43.58
66486;BME280;53303;47.476;8.084;2022-07-22T08:35:10;96614.25;;;22.21;43.58
66486;BME280;53303;47.476;8.084;2022-07-22T08:37:38;96614.25;;;22.21;43.54
66486;BME280;53303;47.476;8.084;2022-07-22T08:40:05;96616.28;;;22.20;43.55
66486;BME280;53303;47.476;8.084;2022-07-22T08:42:36;96619.91;;;22.27;43.54
66486;BME280;53303;47.476;8.084;2022-07-22T08:45:02;96623.91;;;22.25;43.65
66486;BME280;53303;47.476;8.084;2022-07-22T08:47:28;96637.53;;;22.23;43.85
66486;BME280;53303;47.476;8.084;2022-07-22T08:49:56;96623.91;;;22.25;43.99
66486;BME280;53303;47.476;8.084;2022-07-22T08:52:22;96630.03;;;22.30;43.75
66486;BME280;53303;47.476;8.084;2022-07-22T08:54:49;96618.91;;;22.30;43.76
66486;BME280;53303;47.476;8.084;2022-07-22T08:57:15;96616.91;;;22.30;43.84
66486;BME280;53303;47.476;8.084;2022-07-22T08:59:55;96608.19;;;22.22;43.76
66486;BME280;53303;47.476;8.084;2022-07-22T09:02:21;96606.75;;;22.27;43.85
66486;BME280;53303;47.476;8.084;2022-07-22T09:05:14;96611.56;;;22.27;44.04
66486;BME280;53303;47.476;8.084;2022-07-22T09:07:42;96589.78;;;22.25;43.92
66486;BME280;53303;47.476;8.084;2022-07-22T09:10:14;96593.63;;;22.28;44.03
66486;BME280;53303;47.476;8.084;2022-07-22T09:12:54;96601.19;;;22.27;44.15
66486;BME280;53303;47.476;8.084;2022-07-22T09:15:27;96610.63;;;22.35;44.29
66486;BME280;53303;47.476;8.084;2022-07-22T09:17:53;96607.31;;;22.37;44.23
66486;BME280;53303;47.476;8.084;2022-07-22T09:20:24;96594.44;;;22.34;44.23
66486;BME280;53303;47.476;8.084;2022-07-22T09:22:50;96601.03;;;22.42;44.09
66486;BME280;53303;47.476;8.084;2022-07-22T09:27:49;96600.56;;;22.43;43.96
66486;BME280;53303;47.476;8.084;2022-07-22T09:30:20;96598.25;;;22.42;44.10
66486;BME280;53303;47.476;8.084;2022-07-22T09:32:46;96602.09;;;22.45;44.05
66486;BME280;53303;47.476;8.084;2022-07-22T09:35:13;96601.81;;;22.42;44.22
66486;BME280;53303;47.476;8.084;2022-07-22T09:37:49;96600.81;;;22.46;44.07
66486;BME280;53303;47.476;8.084;2022-07-22T09:40:24;96596.66;;;22.30;44.40
66486;BME280;53303;47.476;8.084;2022-07-22T09:45:18;96583.88;;;22.43;44.22
66486;BME280;53303;47.476;8.084;2022-07-22T09:47:47;96588.47;;;22.52;44.22
66486;BME280;53303;47.476;8.084;2022-07-22T09:50:21;96589.22;;;22.53;44.14
66486;BME280;53303;47.476;8.084;2022-07-22T09:52:49;96581.66;;;22.53;44.32
66486;BME280;53303;47.476;8.084;2022-07-22T09:55:16;96588.25;;;22.56;43.82
66486;BME280;53303;47.476;8.084;2022-07-22T09:57:42;96581.66;;;22.53;44.27
66486;BME280;53303;47.476;8.084;2022-07-22T10:00:08;96575.59;;;22.55;44.31
66486;BME280;53303;47.476;8.084;2022-07-22T10:02:40;96574.84;;;22.60;44.11
66486;BME280;53303;47.476;8.084;2022-07-22T10:05:07;96572.38;;;22.62;44.06
66486;BME280;53303;47.476;8.084;2022-07-22T10:07:36;96572.59;;;22.58;44.10
66486;BME280;53303;47.476;8.084;2022-07-22T10:10:02;96570.06;;;22.60;44.03
66486;BME280;53303;47.476;8.084;2022-07-22T10:12:30;96572.38;;;22.62;44.04
66486;BME280;53303;47.476;8.084;2022-07-22T10:14:56;96560.69;;;22.58;43.89
66486;BME280;53303;47.476;8.084;2022-07-22T10:17:22;96558.47;;;22.62;44.29
66486;BME280;53303;47.476;8.084;2022-07-22T10:19:50;96567.59;;;22.68;44.15
66486;BME280;53303;47.476;8.084;2022-07-22T10:25:13;96560.00;;;22.69;44.02
66486;BME280;53303;47.476;8.084;2022-07-22T10:28:02;96545.06;;;22.66;43.88
66486;BME280;53303;47.476;8.084;2022-07-22T10:30:36;96551.41;;;22.72;44.03
66486;BME280;53303;47.476;8.084;2022-07-22T10:35:32;96557.78;;;22.78;43.98
66486;BME280;53303;47.476;8.084;2022-07-22T10:38:01;96557.22;;;22.74;43.93
66486;BME280;53303;47.476;8.084;2022-07-22T10:40:29;96554.75;;;22.82;44.04
66486;BME280;53303;47.476;8.084;2022-07-22T10:45:28;96548.69;;;22.84;43.94
66486;BME280;53303;47.476;8.084;2022-07-22T10:47:58;96536.25;;;22.79;44.06
66486;BME280;53303;47.476;8.084;2022-07-22T10:55:57;96538.84;;;22.88;44.21
66486;BME280;53303;47.476;8.084;2022-07-22T11:01:06;96543.91;;;22.95;44.43
66486;BME280;53303;47.476;8.084;2022-07-22T11:03:33;96533.03;;;22.92;44.20
66486;BME280;53303;47.476;8.084;2022-07-22T11:08:49;96527.22;;;23.01;44.23
66486;BME280;53303;47.476;8.084;2022-07-22T11:11:15;96523.69;;;23.00;44.20
66486;BME280;53303;47.476;8.084;2022-07-22T11:13:42;96523.19;;;23.02;44.15
66486;BME280;53303;47.476;8.084;2022-07-22T11:21:23;96515.38;;;23.06;43.98
66486;BME280;53303;47.476;8.084;2022-07-22T11:23:55;96509.31;;;23.08;44.06
66486;BME280;53303;47.476;8.084;2022-07-22T11:26:41;96514.63;;;23.06;44.07
66486;BME280;53303;47.476;8.084;2022-07-22T11:29:07;96510.34;;;23.10;43.84
66486;BME280;53303;47.476;8.084;2022-07-22T11:31:39;96496.69;;;23.07;43.77
66486;BME280;53303;47.476;8.084;2022-07-22T11:34:11;96507.03;;;23.12;43.90
66486;BME280;53303;47.476;8.084;2022-07-22T11:36:39;96505.03;;;23.12;44.27
66486;BME280;53303;47.476;8.084;2022-07-22T11:39:09;96505.56;;;23.16;43.71
66486;BME280;53303;47.476;8.084;2022-07-22T11:41:39;96497.19;;;23.16;43.84
66486;BME280;53303;47.476;8.084;2022-07-22T11:44:05;96493.91;;;23.18;43.98
66486;BME280;53303;47.476;8.084;2022-07-22T11:46:41;96486.81;;;23.11;43.78
66486;BME280;53303;47.476;8.084;2022-07-22T11:49:08;96480.25;;;23.20;44.21
66486;BME280;53303;47.476;8.084;2022-07-22T11:51:36;96482.53;;;23.22;44.11
66486;BME280;53303;47.476;8.084;2022-07-22T11:54:05;96481.53;;;23.25;43.82
66486;BME280;53303;47.476;8.084;2022-07-22T11:56:31;96478.25;;;23.26;43.91
66486;BME280;53303;47.476;8.084;2022-07-22T11:58:56;96477.72;;;23.28;43.69
66486;BME280;53303;47.476;8.084;2022-07-22T12:01:27;96455.94;;;23.21;43.51
66486;BME280;53303;47.476;8.084;2022-07-22T12:03:57;96469.91;;;23.32;43.45
66486;BME280;53303;47.476;8.084;2022-07-22T12:06:27;96469.13;;;23.31;43.61
66486;BME280;53303;47.476;8.084;2022-07-22T12:09:10;96459.75;;;23.29;43.55
66486;BME280;53303;47.476;8.084;2022-07-22T12:11:37;96459.50;;;23.32;43.74
66486;BME280;53303;47.476;8.084;2022-07-22T12:14:07;96460.78;;;23.37;43.40
66486;BME280;53303;47.476;8.084;2022-07-22T12:16:33;96453.19;;;23.37;43.47
66486;BME280;53303;47.476;8.084;2022-07-22T12:19:01;96454.19;;;23.40;43.34
66486;BME280;53303;47.476;8.084;2022-07-22T12:21:29;96450.91;;;23.42;43.93
66486;BME280;53303;47.476;8.084;2022-07-22T12:26:47;96442.81;;;23.38;43.36
66486;BME280;53303;47.476;8.084;2022-07-22T12:31:53;96436.97;;;23.47;43.23
66486;BME280;53303;47.476;8.084;2022-07-22T12:34:36;96422.31;;;23.41;43.18
66486;BME280;53303;47.476;8.084;2022-07-22T12:42:36;96425.56;;;23.51;42.92
66486;BME280;53303;47.476;8.084;2022-07-22T12:50:30;96429.91;;;23.52;42.89
66486;BME280;53303;47.476;8.084;2022-07-22T12:53:00;96433.69;;;23.49;42.22
66486;BME280;53303;47.476;8.084;2022-07-22T12:55:28;96426.59;;;23.36;41.88
66486;BME280;53303;47.476;8.084;2022-07-22T12:57:53;96435.22;;;23.50;41.73
66486;BME280;53303;47.476;8.084;2022-07-22T13:00:22;96423.81;;;23.53;41.89
66486;BME280;53303;47.476;8.084;2022-07-22T13:02:48;96431.16;;;23.56;41.47
66486;BME280;53303;47.476;8.084;2022-07-22T13:05:17;96424.31;;;23.57;41.79
66486;BME280;53303;47.476;8.084;2022-07-22T13:07:43;96417.50;;;23.59;41.88
66486;BME280;53303;47.476;8.084;2022-07-22T13:10:10;96419.25;;;23.62;41.61
66486;BME280;53303;47.476;8.084;2022-07-22T13:12:36;96416.44;;;23.62;41.73
66486;BME280;53303;47.476;8.084;2022-07-22T13:15:01;96417.22;;;23.62;41.68
66486;BME280;53303;47.476;8.084;2022-07-22T13:17:27;96407.84;;;23.60;41.69
66486;BME280;53303;47.476;8.084;2022-07-22T13:19:55;96402.03;;;23.57;41.42
66486;BME280;53303;47.476;8.084;2022-07-22T13:22:22;96410.38;;;23.63;41.41
66486;BME280;53303;47.476;8.084;2022-07-22T13:24:48;96404.56;;;23.61;41.80
66486;BME280;53303;47.476;8.084;2022-07-22T13:27:18;96414.44;;;23.68;41.87
66486;BME280;53303;47.476;8.084;2022-07-22T13:29:43;96401.78;;;23.61;41.45
66486;BME280;53303;47.476;8.084;2022-07-22T13:32:09;96396.94;;;23.62;41.62
66486;BME280;53303;47.476;8.084;2022-07-22T13:34:34;96404.31;;;23.65;41.84
66486;BME280;53303;47.476;8.084;2022-07-22T13:37:01;96409.88;;;23.70;41.90
66486;BME280;53303;47.476;8.084;2022-07-22T13:39:27;96406.31;;;23.70;41.88
66486;BME280;53303;47.476;8.084;2022-07-22T13:41:53;96404.03;;;23.68;42.02
66486;BME280;53303;47.476;8.084;2022-07-22T13:44:21;96411.13;;;23.75;41.97